sensor_id;sensor_type;location;lat;lon;timestamp;P1;durP1;ratioP1;P2;durP2;ratioP2
11303;SDS011;5707;49.588;12.148;2024-01-11T00:01:17;19.20;;;17.30;;
11303;SDS011;5707;49.588;12.148;2024-01-11T00:03:43;20.02;;;17.95;;
11303;SDS011;5707;49.588;12.148;2024-01-11T00:06:08;19.77;;;16.23;;
11303;SDS011;5707;49.588;12.148;2024-01-11T00:08:34;17.95;;;16.05;;
11303;SDS011;5707;49.588;12.148;2024-01-11T00:10:59;18.02;;;16.30;;
11303;SDS011;5707;49.588;12.148;2024-01-11T00:13:25;18.83;;;16.75;;
11303;SDS011;5707;49.588;12.148;2024-01-11T00:15:51;17.38;;;15.57;;
11303;SDS011;5707;49.588;12.148;2024-01-11T00:18:17;17.45;;;15.60;;
11303;SDS011;5707;49.588;12.148;2024-01-11T00:20:43;18.13;;;16.25;;
11303;SDS011;5707;49.588;12.148;2024-01-11T00:23:08;18.02;;;16.20;;
11303;SDS011;5707;49.588;12.148;2024-01-11T00:25:34;19.45;;;17.17;;
11303;SDS011;5707;49.588;12.148;2024-01-11T00:28:00;16.35;;;14.48;;
11303;SDS011;5707;49.588;12.148;2024-01-11T00:30:26;18.50;;;16.40;;
11303;SDS011;5707;49.588;12.148;2024-01-11T00:32:52;17.92;;;15.70;;
11303;SDS011;5707;49.588;12.148;2024-01-11T00:35:18;17.20;;;15.07;;
11303;SDS011;5707;49.588;12.148;2024-01-11T00:37:44;18.48;;;15.40;;
11303;SDS011;5707;49.588;12.148;2024-01-11T00:40:10;18.08;;;16.17;;
11303;SDS011;5707;49.588;12.148;2024-01-11T00:42:36;18.83;;;16.30;;
11303;SDS011;5707;49.588;12.148;2024-01-11T00:45:01;15.85;;;14.35;;
11303;SDS011;5707;49.588;12.148;2024-01-11T00:47:27;16.27;;;14.75;;
11303;SDS011;5707;49.588;12.148;2024-01-11T00:49:53;17.42;;;15.63;;
11303;SDS011;5707;49.588;12.148;2024-01-11T00:52:19;16.65;;;15.05;;
11303;SDS011;5707;49.588;12.148;2024-01-11T00:54:44;16.30;;;14.68;;
11303;SDS011;5707;49.588;12.148;2024-01-11T00:57:10;16.05;;;14.40;;
11303;SDS011;5707;49.588;12.148;2024-01-11T00:59:35;16.75;;;14.68;;
11303;SDS011;5707;49.588;12.148;2024-01-11T01:02:01;17.27;;;15.48;;
11303;SDS011;5707;49.588;12.148;2024-01-11T01:04:27;17.08;;;15.38;;
11303;SDS011;5707;49.588;12.148;2024-01-11T01:06:52;18.13;;;16.17;;
11303;SDS011;5707;49.588;12.148;2024-01-11T01:09:18;17.52;;;15.35;;
11303;SDS011;5707;49.588;12.148;2024-01-11T01:11:43;16.50;;;15.00;;
11303;SDS011;5707;49.588;12.148;2024-01-11T01:14:09;17.42;;;15.20;;
11303;SDS011;5707;49.588;12.148;2024-01-11T01:16:34;17.00;;;15.30;;
11303;SDS011;5707;49.588;12.148;2024-01-11T01:19:00;16.25;;;14.57;;
11303;SDS011;5707;49.588;12.148;2024-01-11T01:21:25;15.80;;;14.25;;
11303;SDS011;5707;49.588;12.148;2024-01-11T01:23:51;16.50;;;15.00;;
11303;SDS011;5707;49.588;12.148;2024-01-11T01:26:17;16.38;;;14.68;;
11303;SDS011;5707;49.588;12.148;2024-01-11T01:28:42;15.25;;;13.85;;
11303;SDS011;5707;49.588;12.148;2024-01-11T01:31:08;17.20;;;15.52;;
11303;SDS011;5707;49.588;12.148;2024-01-11T01:33:35;16.08;;;14.43;;
11303;SDS011;5707;49.588;12.148;2024-01-11T01:36:00;17.40;;;15.70;;
11303;SDS011;5707;49.588;12.148;2024-01-11T01:38:26;16.40;;;14.65;;
11303;SDS011;5707;49.588;12.148;2024-01-11T01:40:51;17.20;;;15.38;;
11303;SDS011;5707;49.588;12.148;2024-01-11T01:43:17;16.88;;;15.15;;
11303;SDS011;5707;49.588;12.148;2024-01-11T01:45:42;16.40;;;14.63;;
11303;SDS011;5707;49.588;12.148;2024-01-11T01:48:08;16.40;;;14.77;;
11303;SDS011;5707;49.588;12.148;2024-01-11T01:50:33;17.70;;;15.90;;
11303;SDS011;5707;49.588;12.148;2024-01-11T01:52:59;18.73;;;15.75;;
11303;SDS011;5707;49.588;12.148;2024-01-11T01:55:26;18.60;;;15.95;;
11303;SDS011;5707;49.588;12.148;2024-01-11T01:57:53;17.23;;;15.23;;
11303;SDS011;5707;49.588;12.148;2024-01-11T02:00:20;17.58;;;14.48;;
11303;SDS011;5707;49.588;12.148;2024-01-11T02:02:46;14.48;;;13.10;;
11303;SDS011;5707;49.588;12.148;2024-01-11T02:05:15;17.60;;;15.80;;
11303;SDS011;5707;49.588;12.148;2024-01-11T02:07:42;16.83;;;15.13;;
11303;SDS011;5707;49.588;12.148;2024-01-11T02:10:09;15.73;;;14.13;;
11303;SDS011;5707;49.588;12.148;2024-01-11T02:12:35;16.77;;;15.00;;
11303;SDS011;5707;49.588;12.148;2024-01-11T02:15:02;16.70;;;15.15;;
11303;SDS011;5707;49.588;12.148;2024-01-11T02:17:28;16.00;;;14.45;;
11303;SDS011;5707;49.588;12.148;2024-01-11T02:19:55;17.00;;;14.85;;
11303;SDS011;5707;49.588;12.148;2024-01-11T02:22:22;16.52;;;14.65;;
11303;SDS011;5707;49.588;12.148;2024-01-11T02:24:51;17.13;;;15.15;;
11303;SDS011;5707;49.588;12.148;2024-01-11T02:27:18;19.02;;;15.43;;
11303;SDS011;5707;49.588;12.148;2024-01-11T02:29:43;18.25;;;16.17;;
11303;SDS011;5707;49.588;12.148;2024-01-11T02:32:09;17.60;;;14.85;;
11303;SDS011;5707;49.588;12.148;2024-01-11T02:34:34;16.73;;;14.98;;
11303;SDS011;5707;49.588;12.148;2024-01-11T02:37:01;16.63;;;14.95;;
11303;SDS011;5707;49.588;12.148;2024-01-11T02:39:27;16.75;;;14.98;;
11303;SDS011;5707;49.588;12.148;2024-01-11T02:41:54;17.23;;;14.88;;
11303;SDS011;5707;49.588;12.148;2024-01-11T02:44:21;16.08;;;14.43;;
11303;SDS011;5707;49.588;12.148;2024-01-11T02:46:47;17.35;;;15.18;;
11303;SDS011;5707;49.588;12.148;2024-01-11T02:49:12;15.55;;;14.05;;
11303;SDS011;5707;49.588;12.148;2024-01-11T02:51:38;17.30;;;15.38;;
11303;SDS011;5707;49.588;12.148;2024-01-11T02:54:03;18.40;;;15.32;;
11303;SDS011;5707;49.588;12.148;2024-01-11T02:56:29;17.73;;;15.73;;
11303;SDS011;5707;49.588;12.148;2024-01-11T02:58:54;19.15;;;17.30;;
11303;SDS011;5707;49.588;12.148;2024-01-11T03:01:20;18.30;;;16.00;;
11303;SDS011;5707;49.588;12.148;2024-01-11T03:03:46;16.52;;;14.98;;
11303;SDS011;5707;49.588;12.148;2024-01-11T03:06:11;18.25;;;15.95;;
11303;SDS011;5707;49.588;12.148;2024-01-11T03:08:37;17.17;;;15.18;;
11303;SDS011;5707;49.588;12.148;2024-01-11T03:11:02;16.85;;;14.88;;
11303;SDS011;5707;49.588;12.148;2024-01-11T03:13:28;15.95;;;14.45;;
11303;SDS011;5707;49.588;12.148;2024-01-11T03:15:54;17.52;;;14.07;;
11303;SDS011;5707;49.588;12.148;2024-01-11T03:18:19;16.25;;;14.75;;
11303;SDS011;5707;49.588;12.148;2024-01-11T03:20:45;15.70;;;14.13;;
11303;SDS011;5707;49.588;12.148;2024-01-11T03:23:10;16.40;;;14.77;;
11303;SDS011;5707;49.588;12.148;2024-01-11T03:25:36;15.23;;;13.75;;
11303;SDS011;5707;49.588;12.148;2024-01-11T03:28:01;16.23;;;14.48;;
11303;SDS011;5707;49.588;12.148;2024-01-11T03:30:27;16.35;;;14.63;;
11303;SDS011;5707;49.588;12.148;2024-01-11T03:32:53;14.60;;;13.23;;
11303;SDS011;5707;49.588;12.148;2024-01-11T03:35:18;16.63;;;15.05;;
11303;SDS011;5707;49.588;12.148;2024-01-11T03:37:45;15.18;;;13.68;;
11303;SDS011;5707;49.588;12.148;2024-01-11T03:40:10;16.25;;;14.65;;
11303;SDS011;5707;49.588;12.148;2024-01-11T03:42:36;15.98;;;14.38;;
11303;SDS011;5707;49.588;12.148;2024-01-11T03:45:02;18.65;;;16.35;;
11303;SDS011;5707;49.588;12.148;2024-01-11T03:47:30;17.33;;;15.52;;
11303;SDS011;5707;49.588;12.148;2024-01-11T03:49:55;17.42;;;15.60;;
11303;SDS011;5707;49.588;12.148;2024-01-11T03:52:21;17.45;;;15.23;;
11303;SDS011;5707;49.588;12.148;2024-01-11T03:54:47;17.80;;;15.40;;
11303;SDS011;5707;49.588;12.148;2024-01-11T03:57:13;16.23;;;14.60;;
11303;SDS011;5707;49.588;12.148;2024-01-11T03:59:39;16.90;;;15.05;;
11303;SDS011;5707;49.588;12.148;2024-01-11T04:02:05;20.77;;;17.05;;
11303;SDS011;5707;49.588;12.148;2024-01-11T04:04:31;17.10;;;15.30;;
11303;SDS011;5707;49.588;12.148;2024-01-11T04:06:57;21.02;;;16.60;;
11303;SDS011;5707;49.588;12.148;2024-01-11T04:09:23;16.30;;;14.77;;
11303;SDS011;5707;49.588;12.148;2024-01-11T04:11:48;16.40;;;14.15;;
11303;SDS011;5707;49.588;12.148;2024-01-11T04:14:14;17.95;;;16.10;;
11303;SDS011;5707;49.588;12.148;2024-01-11T04:16:40;16.30;;;14.60;;
11303;SDS011;5707;49.588;12.148;2024-01-11T04:19:06;17.80;;;14.77;;
11303;SDS011;5707;49.588;12.148;2024-01-11T04:21:32;16.38;;;14.85;;
11303;SDS011;5707;49.588;12.148;2024-01-11T04:23:57;15.88;;;14.43;;
11303;SDS011;5707;49.588;12.148;2024-01-11T04:26:23;17.13;;;15.38;;
11303;SDS011;5707;49.588;12.148;2024-01-11T04:28:49;16.48;;;14.77;;
11303;SDS011;5707;49.588;12.148;2024-01-11T04:31:15;15.85;;;14.25;;
11303;SDS011;5707;49.588;12.148;2024-01-11T04:33:44;16.15;;;14.55;;
11303;SDS011;5707;49.588;12.148;2024-01-11T04:36:11;16.20;;;14.60;;
11303;SDS011;5707;49.588;12.148;2024-01-11T04:38:37;15.48;;;13.88;;
11303;SDS011;5707;49.588;12.148;2024-01-11T04:41:10;15.82;;;14.15;;
11303;SDS011;5707;49.588;12.148;2024-01-11T04:43:39;15.43;;;14.02;;
11303;SDS011;5707;49.588;12.148;2024-01-11T04:46:18;15.50;;;13.88;;
11303;SDS011;5707;49.588;12.148;2024-01-11T04:48:45;15.73;;;14.07;;
11303;SDS011;5707;49.588;12.148;2024-01-11T04:51:12;15.90;;;14.38;;
11303;SDS011;5707;49.588;12.148;2024-01-11T04:53:39;15.93;;;14.18;;
11303;SDS011;5707;49.588;12.148;2024-01-11T04:56:06;16.00;;;14.35;;
11303;SDS011;5707;49.588;12.148;2024-01-11T04:58:32;16.80;;;14.10;;
11303;SDS011;5707;49.588;12.148;2024-01-11T05:00:58;16.20;;;14.55;;
11303;SDS011;5707;49.588;12.148;2024-01-11T05:03:24;16.63;;;14.93;;
11303;SDS011;5707;49.588;12.148;2024-01-11T05:05:50;15.82;;;14.20;;
11303;SDS011;5707;49.588;12.148;2024-01-11T05:08:16;15.75;;;13.45;;
11303;SDS011;5707;49.588;12.148;2024-01-11T05:10:42;16.80;;;14.95;;
11303;SDS011;5707;49.588;12.148;2024-01-11T05:13:07;15.57;;;14.05;;
11303;SDS011;5707;49.588;12.148;2024-01-11T05:15:34;17.83;;;14.10;;
11303;SDS011;5707;49.588;12.148;2024-01-11T05:17:59;16.20;;;14.52;;
11303;SDS011;5707;49.588;12.148;2024-01-11T05:20:25;15.95;;;14.20;;
11303;SDS011;5707;49.588;12.148;2024-01-11T05:22:50;16.35;;;14.95;;
11303;SDS011;5707;49.588;12.148;2024-01-11T05:25:16;16.90;;;15.23;;
11303;SDS011;5707;49.588;12.148;2024-01-11T05:27:41;17.17;;;14.90;;
11303;SDS011;5707;49.588;12.148;2024-01-11T05:30:07;17.33;;;15.52;;
11303;SDS011;5707;49.588;12.148;2024-01-11T05:32:33;17.52;;;15.93;;
11303;SDS011;5707;49.588;12.148;2024-01-11T05:34:59;19.75;;;15.80;;
11303;SDS011;5707;49.588;12.148;2024-01-11T05:37:24;15.88;;;14.27;;
11303;SDS011;5707;49.588;12.148;2024-01-11T05:39:50;15.60;;;14.10;;
11303;SDS011;5707;49.588;12.148;2024-01-11T05:42:16;15.40;;;13.98;;
11303;SDS011;5707;49.588;12.148;2024-01-11T05:44:42;16.73;;;15.13;;
11303;SDS011;5707;49.588;12.148;2024-01-11T05:47:08;16.15;;;14.48;;
11303;SDS011;5707;49.588;12.148;2024-01-11T05:49:34;16.38;;;14.88;;
11303;SDS011;5707;49.588;12.148;2024-01-11T05:52:00;16.70;;;14.90;;
11303;SDS011;5707;49.588;12.148;2024-01-11T05:54:25;18.20;;;15.73;;
11303;SDS011;5707;49.588;12.148;2024-01-11T05:56:53;17.02;;;14.85;;
11303;SDS011;5707;49.588;12.148;2024-01-11T05:59:21;17.67;;;15.88;;
11303;SDS011;5707;49.588;12.148;2024-01-11T06:01:47;16.17;;;14.55;;
11303;SDS011;5707;49.588;12.148;2024-01-11T06:04:12;17.30;;;14.85;;
11303;SDS011;5707;49.588;12.148;2024-01-11T06:06:38;16.80;;;15.02;;
11303;SDS011;5707;49.588;12.148;2024-01-11T06:09:05;16.60;;;14.73;;
11303;SDS011;5707;49.588;12.148;2024-01-11T06:11:30;15.77;;;14.13;;
11303;SDS011;5707;49.588;12.148;2024-01-11T06:13:56;17.33;;;15.52;;
11303;SDS011;5707;49.588;12.148;2024-01-11T06:16:22;16.77;;;15.15;;
11303;SDS011;5707;49.588;12.148;2024-01-11T06:18:48;15.48;;;13.88;;
11303;SDS011;5707;49.588;12.148;2024-01-11T06:21:13;15.63;;;14.02;;
11303;SDS011;5707;49.588;12.148;2024-01-11T06:23:40;17.42;;;15.68;;
11303;SDS011;5707;49.588;12.148;2024-01-11T06:26:07;16.35;;;14.85;;
11303;SDS011;5707;49.588;12.148;2024-01-11T06:28:32;17.90;;;16.08;;
11303;SDS011;5707;49.588;12.148;2024-01-11T06:30:58;19.73;;;17.58;;
11303;SDS011;5707;49.588;12.148;2024-01-11T06:33:24;21.63;;;17.73;;
11303;SDS011;5707;49.588;12.148;2024-01-11T06:35:49;19.40;;;17.38;;
11303;SDS011;5707;49.588;12.148;2024-01-11T06:38:15;21.25;;;19.05;;
11303;SDS011;5707;49.588;12.148;2024-01-11T06:40:40;20.10;;;18.08;;
11303;SDS011;5707;49.588;12.148;2024-01-11T06:43:06;19.17;;;17.20;;
11303;SDS011;5707;49.588;12.148;2024-01-11T06:45:32;19.98;;;16.73;;
11303;SDS011;5707;49.588;12.148;2024-01-11T06:47:57;19.25;;;17.38;;
11303;SDS011;5707;49.588;12.148;2024-01-11T06:50:23;17.45;;;15.10;;
11303;SDS011;5707;49.588;12.148;2024-01-11T06:52:48;17.15;;;15.27;;
11303;SDS011;5707;49.588;12.148;2024-01-11T06:55:14;16.15;;;14.75;;
11303;SDS011;5707;49.588;12.148;2024-01-11T06:57:39;19.02;;;17.10;;
11303;SDS011;5707;49.588;12.148;2024-01-11T07:00:06;18.85;;;16.73;;
11303;SDS011;5707;49.588;12.148;2024-01-11T07:02:32;18.73;;;16.92;;
11303;SDS011;5707;49.588;12.148;2024-01-11T07:04:58;19.85;;;17.70;;
11303;SDS011;5707;49.588;12.148;2024-01-11T07:07:23;18.80;;;16.65;;
11303;SDS011;5707;49.588;12.148;2024-01-11T07:09:49;21.08;;;18.83;;
11303;SDS011;5707;49.588;12.148;2024-01-11T07:12:14;21.48;;;19.27;;
11303;SDS011;5707;49.588;12.148;2024-01-11T07:14:40;19.92;;;18.02;;
11303;SDS011;5707;49.588;12.148;2024-01-11T07:17:07;17.98;;;16.25;;
11303;SDS011;5707;49.588;12.148;2024-01-11T07:19:32;19.55;;;15.93;;
11303;SDS011;5707;49.588;12.148;2024-01-11T07:21:58;16.95;;;15.25;;
11303;SDS011;5707;49.588;12.148;2024-01-11T07:24:23;15.85;;;14.18;;
11303;SDS011;5707;49.588;12.148;2024-01-11T07:26:50;15.93;;;14.32;;
11303;SDS011;5707;49.588;12.148;2024-01-11T07:29:15;18.08;;;15.82;;
11303;SDS011;5707;49.588;12.148;2024-01-11T07:31:41;18.65;;;16.83;;
11303;SDS011;5707;49.588;12.148;2024-01-11T07:34:06;20.50;;;16.92;;
11303;SDS011;5707;49.588;12.148;2024-01-11T07:36:32;18.35;;;16.13;;
11303;SDS011;5707;49.588;12.148;2024-01-11T07:38:57;18.33;;;16.42;;
11303;SDS011;5707;49.588;12.148;2024-01-11T07:41:23;17.05;;;15.40;;
11303;SDS011;5707;49.588;12.148;2024-01-11T07:43:49;17.60;;;15.80;;
11303;SDS011;5707;49.588;12.148;2024-01-11T07:46:14;16.67;;;14.90;;
11303;SDS011;5707;49.588;12.148;2024-01-11T07:48:40;17.77;;;15.95;;
11303;SDS011;5707;49.588;12.148;2024-01-11T07:51:06;17.70;;;15.35;;
11303;SDS011;5707;49.588;12.148;2024-01-11T07:53:32;18.95;;;17.08;;
11303;SDS011;5707;49.588;12.148;2024-01-11T07:55:58;19.95;;;16.23;;
11303;SDS011;5707;49.588;12.148;2024-01-11T07:58:23;17.80;;;15.80;;
11303;SDS011;5707;49.588;12.148;2024-01-11T08:00:49;18.85;;;16.50;;
11303;SDS011;5707;49.588;12.148;2024-01-11T08:03:15;18.35;;;15.20;;
11303;SDS011;5707;49.588;12.148;2024-01-11T08:05:41;17.88;;;16.02;;
11303;SDS011;5707;49.588;12.148;2024-01-11T08:08:08;17.88;;;16.15;;
11303;SDS011;5707;49.588;12.148;2024-01-11T08:10:33;19.52;;;17.60;;
11303;SDS011;5707;49.588;12.148;2024-01-11T08:12:59;22.52;;;20.33;;
11303;SDS011;5707;49.588;12.148;2024-01-11T08:15:25;24.67;;;22.10;;
11303;SDS011;5707;49.588;12.148;2024-01-11T08:17:50;30.38;;;23.90;;
11303;SDS011;5707;49.588;12.148;2024-01-11T08:20:16;39.00;;;29.95;;
11303;SDS011;5707;49.588;12.148;2024-01-11T08:22:42;47.10;;;37.47;;
11303;SDS011;5707;49.588;12.148;2024-01-11T08:25:14;35.33;;;30.17;;
11303;SDS011;5707;49.588;12.148;2024-01-11T08:27:39;24.45;;;21.58;;
11303;SDS011;5707;49.588;12.148;2024-01-11T08:30:05;22.55;;;20.15;;
11303;SDS011;5707;49.588;12.148;2024-01-11T08:32:33;23.73;;;20.23;;
11303;SDS011;5707;49.588;12.148;2024-01-11T08:35:04;22.42;;;20.02;;
11303;SDS011;5707;49.588;12.148;2024-01-11T08:37:39;20.83;;;18.60;;
11303;SDS011;5707;49.588;12.148;2024-01-11T08:40:05;24.45;;;20.60;;
11303;SDS011;5707;49.588;12.148;2024-01-11T08:42:31;26.25;;;20.65;;
11303;SDS011;5707;49.588;12.148;2024-01-11T08:44:57;24.75;;;21.30;;
11303;SDS011;5707;49.588;12.148;2024-01-11T08:47:23;23.80;;;20.13;;
11303;SDS011;5707;49.588;12.148;2024-01-11T08:49:49;24.83;;;20.63;;
11303;SDS011;5707;49.588;12.148;2024-01-11T08:52:15;23.17;;;19.45;;
11303;SDS011;5707;49.588;12.148;2024-01-11T08:54:40;21.70;;;18.48;;
11303;SDS011;5707;49.588;12.148;2024-01-11T08:57:06;20.30;;;18.20;;
11303;SDS011;5707;49.588;12.148;2024-01-11T08:59:31;18.70;;;16.95;;
11303;SDS011;5707;49.588;12.148;2024-01-11T09:01:57;19.83;;;17.58;;
11303;SDS011;5707;49.588;12.148;2024-01-11T09:04:23;19.58;;;17.60;;
11303;SDS011;5707;49.588;12.148;2024-01-11T09:06:49;20.05;;;17.73;;
11303;SDS011;5707;49.588;12.148;2024-01-11T09:09:15;18.75;;;16.88;;
11303;SDS011;5707;49.588;12.148;2024-01-11T09:11:42;19.90;;;17.85;;
11303;SDS011;5707;49.588;12.148;2024-01-11T09:14:07;21.23;;;18.88;;
11303;SDS011;5707;49.588;12.148;2024-01-11T09:16:36;17.90;;;16.10;;
11303;SDS011;5707;49.588;12.148;2024-01-11T09:19:02;19.75;;;16.75;;
11303;SDS011;5707;49.588;12.148;2024-01-11T09:21:27;17.92;;;16.17;;
11303;SDS011;5707;49.588;12.148;2024-01-11T09:23:53;18.45;;;16.65;;
11303;SDS011;5707;49.588;12.148;2024-01-11T09:26:18;21.08;;;16.75;;
11303;SDS011;5707;49.588;12.148;2024-01-11T09:28:44;21.75;;;17.85;;
11303;SDS011;5707;49.588;12.148;2024-01-11T09:31:10;17.88;;;16.13;;
11303;SDS011;5707;49.588;12.148;2024-01-11T09:33:36;19.65;;;17.40;;
11303;SDS011;5707;49.588;12.148;2024-01-11T09:36:02;21.55;;;17.17;;
11303;SDS011;5707;49.588;12.148;2024-01-11T09:38:28;18.88;;;16.80;;
11303;SDS011;5707;49.588;12.148;2024-01-11T09:40:59;17.25;;;15.55;;
11303;SDS011;5707;49.588;12.148;2024-01-11T09:43:35;17.75;;;16.02;;
11303;SDS011;5707;49.588;12.148;2024-01-11T09:46:04;17.85;;;16.15;;
11303;SDS011;5707;49.588;12.148;2024-01-11T09:48:32;17.45;;;15.75;;
11303;SDS011;5707;49.588;12.148;2024-01-11T09:50:59;17.80;;;15.93;;
11303;SDS011;5707;49.588;12.148;2024-01-11T09:53:32;18.70;;;16.63;;
11303;SDS011;5707;49.588;12.148;2024-01-11T09:55:58;17.42;;;15.65;;
11303;SDS011;5707;49.588;12.148;2024-01-11T09:58:25;18.15;;;16.27;;
11303;SDS011;5707;49.588;12.148;2024-01-11T10:00:53;18.40;;;15.70;;
11303;SDS011;5707;49.588;12.148;2024-01-11T10:03:21;17.75;;;15.88;;
11303;SDS011;5707;49.588;12.148;2024-01-11T10:05:51;18.20;;;15.43;;
11303;SDS011;5707;49.588;12.148;2024-01-11T10:08:22;18.55;;;16.65;;
11303;SDS011;5707;49.588;12.148;2024-01-11T10:10:48;18.33;;;16.52;;
11303;SDS011;5707;49.588;12.148;2024-01-11T10:13:14;19.33;;;16.17;;
11303;SDS011;5707;49.588;12.148;2024-01-11T10:15:41;19.17;;;17.02;;
11303;SDS011;5707;49.588;12.148;2024-01-11T10:18:07;18.98;;;16.60;;
11303;SDS011;5707;49.588;12.148;2024-01-11T10:20:33;16.80;;;15.13;;
11303;SDS011;5707;49.588;12.148;2024-01-11T10:22:59;20.80;;;15.82;;
11303;SDS011;5707;49.588;12.148;2024-01-11T10:25:26;17.90;;;16.17;;
11303;SDS011;5707;49.588;12.148;2024-01-11T10:27:52;18.63;;;16.27;;
11303;SDS011;5707;49.588;12.148;2024-01-11T10:30:17;17.63;;;15.95;;
11303;SDS011;5707;49.588;12.148;2024-01-11T10:32:45;19.20;;;17.17;;
11303;SDS011;5707;49.588;12.148;2024-01-11T10:35:12;16.85;;;15.25;;
11303;SDS011;5707;49.588;12.148;2024-01-11T10:37:38;18.92;;;17.13;;
11303;SDS011;5707;49.588;12.148;2024-01-11T10:40:05;17.40;;;15.07;;
11303;SDS011;5707;49.588;12.148;2024-01-11T10:42:47;17.20;;;15.38;;
11303;SDS011;5707;49.588;12.148;2024-01-11T10:45:17;20.27;;;16.55;;
11303;SDS011;5707;49.588;12.148;2024-01-11T10:47:47;17.90;;;16.17;;
11303;SDS011;5707;49.588;12.148;2024-01-11T10:50:19;17.15;;;15.18;;
11303;SDS011;5707;49.588;12.148;2024-01-11T10:52:50;18.42;;;16.52;;
11303;SDS011;5707;49.588;12.148;2024-01-11T10:55:33;19.17;;;16.65;;
11303;SDS011;5707;49.588;12.148;2024-01-11T10:58:00;16.90;;;15.23;;
11303;SDS011;5707;49.588;12.148;2024-01-11T11:00:29;18.13;;;15.82;;
11303;SDS011;5707;49.588;12.148;2024-01-11T11:02:56;19.75;;;16.38;;
11303;SDS011;5707;49.588;12.148;2024-01-11T11:05:25;17.95;;;16.17;;
11303;SDS011;5707;49.588;12.148;2024-01-11T11:07:52;21.13;;;16.13;;
11303;SDS011;5707;49.588;12.148;2024-01-11T11:10:19;20.83;;;15.52;;
11303;SDS011;5707;49.588;12.148;2024-01-11T11:12:46;16.95;;;15.25;;
11303;SDS011;5707;49.588;12.148;2024-01-11T11:15:13;15.73;;;14.25;;
11303;SDS011;5707;49.588;12.148;2024-01-11T11:17:40;17.92;;;16.02;;
11303;SDS011;5707;49.588;12.148;2024-01-11T11:20:07;18.55;;;16.55;;
11303;SDS011;5707;49.588;12.148;2024-01-11T11:22:33;17.17;;;15.38;;
11303;SDS011;5707;49.588;12.148;2024-01-11T11:25:04;17.05;;;15.40;;
11303;SDS011;5707;49.588;12.148;2024-01-11T11:27:35;15.35;;;13.77;;
11303;SDS011;5707;49.588;12.148;2024-01-11T11:30:02;15.70;;;14.20;;
11303;SDS011;5707;49.588;12.148;2024-01-11T11:32:37;15.90;;;13.77;;
11303;SDS011;5707;49.588;12.148;2024-01-11T11:35:04;15.95;;;14.32;;
11303;SDS011;5707;49.588;12.148;2024-01-11T11:37:30;15.25;;;13.82;;
11303;SDS011;5707;49.588;12.148;2024-01-11T11:39:59;16.25;;;14.43;;
11303;SDS011;5707;49.588;12.148;2024-01-11T11:42:25;15.38;;;13.88;;
11303;SDS011;5707;49.588;12.148;2024-01-11T11:44:51;15.98;;;14.48;;
11303;SDS011;5707;49.588;12.148;2024-01-11T11:47:20;15.90;;;14.13;;
11303;SDS011;5707;49.588;12.148;2024-01-11T11:52:46;15.18;;;12.95;;
11303;SDS011;5707;49.588;12.148;2024-01-11T11:55:22;13.68;;;12.43;;
11303;SDS011;5707;49.588;12.148;2024-01-11T11:57:49;14.55;;;13.20;;
11303;SDS011;5707;49.588;12.148;2024-01-11T12:00:16;14.00;;;12.70;;
11303;SDS011;5707;49.588;12.148;2024-01-11T12:02:42;14.05;;;12.43;;
11303;SDS011;5707;49.588;12.148;2024-01-11T12:05:08;13.45;;;12.25;;
11303;SDS011;5707;49.588;12.148;2024-01-11T12:07:34;12.77;;;11.68;;
11303;SDS011;5707;49.588;12.148;2024-01-11T12:09:59;13.30;;;12.00;;
11303;SDS011;5707;49.588;12.148;2024-01-11T12:12:25;14.15;;;12.77;;
11303;SDS011;5707;49.588;12.148;2024-01-11T12:14:52;14.93;;;12.40;;
11303;SDS011;5707;49.588;12.148;2024-01-11T12:17:18;13.70;;;12.50;;
11303;SDS011;5707;49.588;12.148;2024-01-11T12:19:44;13.45;;;12.10;;
11303;SDS011;5707;49.588;12.148;2024-01-11T12:22:09;13.65;;;12.45;;
11303;SDS011;5707;49.588;12.148;2024-01-11T12:24:35;16.52;;;11.25;;
11303;SDS011;5707;49.588;12.148;2024-01-11T12:27:01;13.85;;;12.55;;
11303;SDS011;5707;49.588;12.148;2024-01-11T12:29:30;13.98;;;12.52;;
11303;SDS011;5707;49.588;12.148;2024-01-11T12:31:56;12.70;;;11.50;;
11303;SDS011;5707;49.588;12.148;2024-01-11T12:34:23;13.32;;;12.05;;
11303;SDS011;5707;49.588;12.148;2024-01-11T12:36:50;13.55;;;12.05;;
11303;SDS011;5707;49.588;12.148;2024-01-11T12:39:18;12.25;;;11.05;;
11303;SDS011;5707;49.588;12.148;2024-01-11T12:41:44;12.27;;;11.18;;
11303;SDS011;5707;49.588;12.148;2024-01-11T12:44:09;12.63;;;11.43;;
11303;SDS011;5707;49.588;12.148;2024-01-11T12:46:35;12.25;;;11.20;;
11303;SDS011;5707;49.588;12.148;2024-01-11T12:49:00;12.25;;;11.18;;
11303;SDS011;5707;49.588;12.148;2024-01-11T12:51:26;12.05;;;10.95;;
11303;SDS011;5707;49.588;12.148;2024-01-11T12:53:52;12.07;;;10.70;;
11303;SDS011;5707;49.588;12.148;2024-01-11T12:56:18;11.60;;;10.60;;
11303;SDS011;5707;49.588;12.148;2024-01-11T12:58:46;11.18;;;9.88;;
11303;SDS011;5707;49.588;12.148;2024-01-11T13:01:12;12.35;;;11.13;;
11303;SDS011;5707;49.588;12.148;2024-01-11T13:03:39;11.35;;;10.32;;
11303;SDS011;5707;49.588;12.148;2024-01-11T13:06:10;12.93;;;11.63;;
11303;SDS011;5707;49.588;12.148;2024-01-11T13:08:37;12.60;;;11.40;;
11303;SDS011;5707;49.588;12.148;2024-01-11T13:11:06;11.30;;;10.30;;
11303;SDS011;5707;49.588;12.148;2024-01-11T13:13:33;11.43;;;10.43;;
11303;SDS011;5707;49.588;12.148;2024-01-11T13:15:59;12.07;;;11.00;;
11303;SDS011;5707;49.588;12.148;2024-01-11T13:18:25;11.55;;;10.45;;
11303;SDS011;5707;49.588;12.148;2024-01-11T13:20:50;11.68;;;10.48;;
11303;SDS011;5707;49.588;12.148;2024-01-11T13:23:19;11.30;;;10.20;;
11303;SDS011;5707;49.588;12.148;2024-01-11T13:25:46;12.13;;;10.77;;
11303;SDS011;5707;49.588;12.148;2024-01-11T13:28:13;12.13;;;11.02;;
11303;SDS011;5707;49.588;12.148;2024-01-11T13:30:42;12.52;;;11.32;;
11303;SDS011;5707;49.588;12.148;2024-01-11T13:33:09;11.48;;;10.48;;
11303;SDS011;5707;49.588;12.148;2024-01-11T13:35:36;12.00;;;10.93;;
11303;SDS011;5707;49.588;12.148;2024-01-11T13:38:02;12.65;;;11.27;;
11303;SDS011;5707;49.588;12.148;2024-01-11T13:40:29;12.20;;;11.10;;
11303;SDS011;5707;49.588;12.148;2024-01-11T13:42:55;12.65;;;11.43;;
11303;SDS011;5707;49.588;12.148;2024-01-11T13:45:23;12.25;;;11.05;;
11303;SDS011;5707;49.588;12.148;2024-01-11T13:47:50;13.23;;;11.60;;
11303;SDS011;5707;49.588;12.148;2024-01-11T13:50:17;12.70;;;11.50;;
11303;SDS011;5707;49.588;12.148;2024-01-11T13:52:43;12.82;;;11.55;;
11303;SDS011;5707;49.588;12.148;2024-01-11T13:55:10;14.07;;;11.68;;
11303;SDS011;5707;49.588;12.148;2024-01-11T13:57:39;12.38;;;11.27;;
11303;SDS011;5707;49.588;12.148;2024-01-11T14:00:05;12.27;;;11.10;;
11303;SDS011;5707;49.588;12.148;2024-01-11T14:02:31;11.30;;;10.20;;
11303;SDS011;5707;49.588;12.148;2024-01-11T14:04:58;12.57;;;11.38;;
11303;SDS011;5707;49.588;12.148;2024-01-11T14:07:23;11.50;;;10.30;;
11303;SDS011;5707;49.588;12.148;2024-01-11T14:09:49;11.90;;;10.75;;
11303;SDS011;5707;49.588;12.148;2024-01-11T14:12:15;11.75;;;10.57;;
11303;SDS011;5707;49.588;12.148;2024-01-11T14:14:41;12.13;;;10.40;;
11303;SDS011;5707;49.588;12.148;2024-01-11T14:17:08;11.93;;;10.63;;
11303;SDS011;5707;49.588;12.148;2024-01-11T14:19:33;10.95;;;9.95;;